Time;durP1;ratioP1;P1;durP2;ratioP2;P2;SDS_P1;SDS_P2;PMS_P1;PMS_P2;Temp;Humidity;BMP_temperature;BMP_pressure;BME280_temperature;BME280_humidity;BME280_pressure;Samples;Min_cycle;Max_cycle;Signal;HPM_P1;HPM_P2
2023/11/14 00:02:17;;;;;;;32.78;20.80;;;10.80;99.90;;;;;;5031664;28;20685;-77
2023/11/14 00:04:44;;;;;;;32.22;19.38;;;10.80;99.90;;;;;;5035154;28;20082;-76
2023/11/14 00:07:11;;;;;;;31.27;18.52;;;10.80;99.90;;;;;;5034052;28;20034;-77
2023/11/14 00:09:38;;;;;;;39.08;19.15;;;10.80;99.90;;;;;;5033192;28;20033;-78
2023/11/14 00:12:05;;;;;;;35.20;19.00;;;10.80;99.90;;;;;;5036726;28;20045;-77
2023/11/14 00:14:32;;;;;;;31.23;19.92;;;10.80;99.90;;;;;;5044104;28;20037;-75
2023/11/14 00:16:59;;;;;;;28.98;18.45;;;10.80;99.90;;;;;;5037167;28;20059;-76
2023/11/14 00:19:26;;;;;;;33.05;19.17;;;10.80;99.90;;;;;;5023002;28;20885;-77
2023/11/14 00:21:53;;;;;;;34.08;19.33;;;10.90;99.90;;;;;;5034121;28;20045;-78
2023/11/14 00:24:20;;;;;;;34.30;19.52;;;10.90;99.90;;;;;;5034533;28;20491;-76
2023/11/14 00:26:47;;;;;;;29.67;19.08;;;10.90;99.90;;;;;;5018739;28;20045;-78
2023/11/14 00:29:14;;;;;;;30.10;19.20;;;10.90;99.90;;;;;;5034772;28;20033;-77
2023/11/14 00:31:42;;;;;;;34.22;19.25;;;10.90;99.90;;;;;;5036129;28;20041;-76
2023/11/14 00:34:08;;;;;;;33.05;20.02;;;10.90;99.90;;;;;;5037874;28;20114;-76
2023/11/14 00:36:36;;;;;;;39.08;19.80;;;10.90;99.90;;;;;;5026057;28;20037;-77
2023/11/14 00:39:05;;;;;;;21.50;19.15;;;10.90;99.90;;;;;;5034268;28;20045;-77
2023/11/14 00:41:32;;;;;;;30.67;19.58;;;10.90;99.90;;;;;;5018041;28;20450;-76
2023/11/14 00:43:59;;;;;;;31.73;19.65;;;10.90;99.90;;;;;;5032211;28;20076;-75
2023/11/14 00:46:26;;;;;;;42.58;20.08;;;10.90;99.90;;;;;;5047281;28;20079;-77
2023/11/14 00:48:53;;;;;;;33.25;19.33;;;10.90;99.90;;;;;;5019343;28;20083;-76
2023/11/14 00:51:19;;;;;;;35.45;20.23;;;10.90;99.90;;;;;;5015566;28;20106;-76
2023/11/14 00:53:49;;;;;;;34.70;20.60;;;11.00;99.90;;;;;;5031015;28;20131;-77
2023/11/14 00:56:16;;;;;;;35.17;20.80;;;11.00;99.90;;;;;;5030556;28;21265;-77
2023/11/14 00:58:44;;;;;;;33.60;19.92;;;11.00;99.90;;;;;;5034971;28;20054;-77
2023/11/14 01:01:11;;;;;;;34.10;20.67;;;11.00;99.90;;;;;;5012804;28;20135;-77
2023/11/14 01:03:38;;;;;;;33.60;19.63;;;11.00;99.90;;;;;;5026631;28;20056;-77
2023/11/14 01:06:05;;;;;;;28.48;19.67;;;10.90;99.90;;;;;;5039391;28;20427;-76
2023/11/14 01:08:32;;;;;;;38.88;19.60;;;11.00;99.90;;;;;;5014378;28;20049;-77
2023/11/14 01:10:59;;;;;;;29.92;19.38;;;11.00;99.90;;;;;;5021353;28;20045;-76
2023/11/14 01:13:26;;;;;;;24.73;19.92;;;11.00;99.90;;;;;;5023881;28;20055;-76
2023/11/14 01:15:53;;;;;;;27.15;19.42;;;11.00;99.90;;;;;;5019472;28;20052;-77
2023/11/14 01:18:20;;;;;;;21.05;18.40;;;11.00;99.90;;;;;;5025932;28;20033;-76
2023/11/14 01:20:47;;;;;;;36.22;19.95;;;11.00;99.90;;;;;;5026409;28;20464;-76
2023/11/14 01:23:16;;;;;;;31.98;19.25;;;11.00;99.90;;;;;;5022590;28;20059;-75
2023/11/14 01:25:44;;;;;;;29.13;20.15;;;11.00;99.90;;;;;;5019108;28;20037;-76
2023/11/14 01:28:21;;;;;;;25.15;19.35;;;11.00;99.90;;;;;;5013989;28;20687;-75
2023/11/14 01:30:48;;;;;;;28.48;19.45;;;11.00;99.90;;;;;;5024216;28;20076;-76
2023/11/14 01:33:14;;;;;;;26.92;19.45;;;11.00;99.90;;;;;;5018233;28;20075;-75
2023/11/14 01:35:41;;;;;;;24.23;19.75;;;11.00;99.90;;;;;;5024871;28;20040;-76
2023/11/14 01:38:08;;;;;;;30.15;20.88;;;11.00;99.90;;;;;;5009350;28;20045;-75
2023/11/14 01:40:35;;;;;;;32.70;19.90;;;11.00;99.90;;;;;;5032920;28;20036;-76
2023/11/14 01:43:02;;;;;;;28.20;19.38;;;11.00;99.90;;;;;;5020896;28;20129;-76
2023/11/14 01:45:30;;;;;;;24.00;19.42;;;11.00;99.90;;;;;;5026236;28;20049;-76
2023/11/14 01:47:57;;;;;;;26.52;19.58;;;11.00;99.90;;;;;;5014744;28;20053;-76
2023/11/14 01:50:24;;;;;;;32.70;19.17;;;11.10;99.90;;;;;;5030326;28;20044;-76
2023/11/14 01:52:51;;;;;;;38.13;20.92;;;11.10;99.90;;;;;;5030361;28;20041;-77
2023/11/14 01:55:19;;;;;;;27.27;18.50;;;11.00;99.90;;;;;;5029931;28;20581;-76
2023/11/14 01:57:46;;;;;;;33.85;20.17;;;11.00;99.90;;;;;;5023694;28;20079;-77
2023/11/14 02:00:15;;;;;;;21.27;18.73;;;11.00;99.90;;;;;;5023954;28;20041;-76
2023/11/14 02:02:42;;;;;;;26.67;20.25;;;11.00;99.90;;;;;;5042164;28;20046;-76
2023/11/14 02:05:10;;;;;;;26.95;19.50;;;11.00;99.90;;;;;;5022253;28;20423;-76
2023/11/14 02:07:37;;;;;;;30.85;19.58;;;11.00;99.90;;;;;;5018338;28;20064;-77
2023/11/14 02:10:04;;;;;;;30.35;19.52;;;11.10;99.90;;;;;;5025631;28;20123;-76
2023/11/14 02:12:32;;;;;;;32.90;20.17;;;11.00;99.90;;;;;;5006048;28;20074;-77
2023/11/14 02:14:59;;;;;;;41.00;20.80;;;11.00;99.90;;;;;;5031232;28;20069;-77
2023/11/14 02:17:26;;;;;;;30.55;19.58;;;11.10;99.90;;;;;;5026285;28;20055;-78
2023/11/14 02:19:54;;;;;;;28.23;19.77;;;11.00;99.90;;;;;;5021066;28;20052;-77
2023/11/14 02:22:22;;;;;;;31.92;20.58;;;11.00;99.90;;;;;;5014200;28;20282;-77
2023/11/14 02:24:55;;;;;;;31.88;19.23;;;11.00;99.90;;;;;;5012328;28;20056;-77
2023/11/14 02:27:25;;;;;;;31.85;20.20;;;11.10;99.90;;;;;;5004415;28;20052;-77
2023/11/14 02:29:55;;;;;;;31.67;19.30;;;11.10;99.90;;;;;;5023839;28;20052;-77
2023/11/14 02:32:22;;;;;;;32.17;19.33;;;11.10;99.90;;;;;;5025602;28;20350;-77
2023/11/14 02:34:52;;;;;;;29.00;18.80;;;11.00;99.90;;;;;;5021801;28;20160;-77
2023/11/14 02:37:20;;;;;;;34.88;19.52;;;11.00;99.90;;;;;;5030295;28;20071;-77
2023/11/14 02:39:47;;;;;;;29.08;19.48;;;11.00;99.90;;;;;;5012112;28;20634;-77
2023/11/14 02:42:16;;;;;;;37.90;20.58;;;11.00;99.90;;;;;;5015568;28;20770;-78
2023/11/14 02:44:44;;;;;;;36.38;19.98;;;11.10;99.90;;;;;;5029000;28;20049;-78
2023/11/14 02:47:11;;;;;;;33.15;19.58;;;11.00;99.90;;;;;;5025478;28;20100;-77
2023/11/14 02:49:41;;;;;;;21.40;18.15;;;11.00;99.90;;;;;;5031891;28;20045;-77
2023/11/14 02:52:09;;;;;;;30.30;19.27;;;11.00;99.90;;;;;;5028026;28;20079;-77
2023/11/14 02:54:36;;;;;;;32.55;19.13;;;11.00;99.90;;;;;;5013239;28;20088;-77
2023/11/14 02:57:07;;;;;;;29.25;18.98;;;11.00;99.90;;;;;;5032854;28;20049;-77
2023/11/14 02:59:34;;;;;;;36.90;20.15;;;11.00;99.90;;;;;;5026021;28;20049;-76
2023/11/14 03:02:01;;;;;;;39.20;20.80;;;11.00;99.90;;;;;;5026812;28;20054;-77
2023/11/14 03:04:28;;;;;;;28.70;20.02;;;11.00;99.90;;;;;;5031207;28;20700;-77
2023/11/14 03:06:55;;;;;;;35.55;20.23;;;11.00;99.90;;;;;;5013611;28;20140;-77
2023/11/14 03:09:22;;;;;;;42.42;21.88;;;11.00;99.90;;;;;;5031300;28;20040;-78
2023/11/14 03:11:49;;;;;;;31.73;20.27;;;11.00;99.90;;;;;;5034163;28;20118;-77
2023/11/14 03:14:15;;;;;;;34.83;19.63;;;11.00;99.90;;;;;;5015088;28;20106;-78
2023/11/14 03:16:42;;;;;;;33.10;19.08;;;11.00;99.90;;;;;;5014895;28;20045;-78
2023/11/14 03:19:09;;;;;;;30.13;19.45;;;10.90;99.90;;;;;;5027928;28;20593;-77
2023/11/14 03:21:42;;;;;;;38.42;20.63;;;10.90;99.90;;;;;;5018554;28;20994;-78
2023/11/14 03:24:11;;;;;;;34.45;19.42;;;10.90;99.90;;;;;;5030731;28;20137;-77
2023/11/14 03:26:38;;;;;;;36.35;19.35;;;10.90;99.90;;;;;;5034226;28;20100;-78
2023/11/14 03:29:04;;;;;;;25.55;18.20;;;10.90;99.90;;;;;;5026829;28;20076;-77
2023/11/14 03:31:31;;;;;;;36.97;20.88;;;10.90;99.90;;;;;;5034725;28;20140;-78
2023/11/14 03:33:58;;;;;;;35.47;19.02;;;10.90;99.90;;;;;;5032040;28;20051;-77
2023/11/14 03:36:25;;;;;;;30.90;19.38;;;10.90;99.90;;;;;;5027429;28;20033;-77
2023/11/14 03:38:53;;;;;;;35.70;20.77;;;10.80;99.90;;;;;;5025556;28;20246;-77
2023/11/14 03:41:19;;;;;;;28.58;17.42;;;10.70;99.90;;;;;;5030553;28;20388;-77
2023/11/14 03:43:47;;;;;;;39.00;16.70;;;10.60;99.90;;;;;;5013027;28;20111;-76
2023/11/14 03:46:14;;;;;;;37.05;16.00;;;10.50;99.90;;;;;;5017016;28;20472;-77
2023/11/14 03:48:41;;;;;;;29.52;15.98;;;10.50;99.90;;;;;;5044455;28;20045;-78
2023/11/14 03:51:09;;;;;;;40.33;16.05;;;10.40;99.90;;;;;;5039252;28;20045;-78
2023/11/14 03:53:37;;;;;;;33.33;16.65;;;10.40;99.90;;;;;;5018973;28;20033;-78
2023/11/14 03:56:05;;;;;;;41.58;18.55;;;10.40;99.90;;;;;;5036795;28;20041;-78
2023/11/14 03:58:38;;;;;;;30.27;17.67;;;10.50;99.90;;;;;;5033386;28;20042;-79
2023/11/14 04:01:06;;;;;;;35.78;20.73;;;10.60;99.90;;;;;;5028107;28;20073;-78
2023/11/14 04:03:33;;;;;;;44.25;20.10;;;10.70;99.90;;;;;;5018933;28;20132;-78
2023/11/14 04:06:00;;;;;;;48.85;19.48;;;10.70;99.90;;;;;;5027495;28;20137;-78
2023/11/14 04:08:28;;;;;;;39.20;19.10;;;10.70;99.90;;;;;;5031519;28;20048;-78
2023/11/14 04:10:55;;;;;;;37.70;18.45;;;10.70;99.90;;;;;;5029247;28;20045;-78
2023/11/14 04:13:22;;;;;;;37.25;19.92;;;10.70;99.90;;;;;;5025318;28;20156;-77
2023/11/14 04:15:48;;;;;;;29.60;18.08;;;10.70;99.90;;;;;;5022948;28;20110;-77
2023/11/14 04:18:15;;;;;;;35.95;17.45;;;10.60;99.90;;;;;;5028259;28;20052;-78
2023/11/14 04:20:42;;;;;;;37.67;17.05;;;10.50;99.90;;;;;;5032799;28;20104;-78
2023/11/14 04:23:09;;;;;;;39.78;18.30;;;10.50;99.90;;;;;;5038250;28;20066;-77
2023/11/14 04:25:36;;;;;;;33.58;17.70;;;10.40;99.90;;;;;;5043032;28;20053;-78
2023/11/14 04:28:03;;;;;;;38.13;18.27;;;10.40;99.90;;;;;;5015284;28;20049;-77
2023/11/14 04:30:30;;;;;;;38.80;17.85;;;10.50;99.90;;;;;;5019509;28;20254;-78
2023/11/14 04:32:56;;;;;;;31.38;18.08;;;10.40;99.90;;;;;;5022831;28;20568;-77
2023/11/14 04:35:23;;;;;;;46.75;18.77;;;10.40;99.90;;;;;;5022265;28;20045;-77
2023/11/14 04:37:52;;;;;;;36.72;17.23;;;10.50;99.90;;;;;;5014079;28;20063;-77
2023/11/14 04:40:19;;;;;;;26.55;15.68;;;10.40;99.90;;;;;;5022960;28;20069;-78
2023/11/14 04:42:46;;;;;;;35.13;16.65;;;10.40;99.90;;;;;;5029610;28;20037;-77
2023/11/14 04:45:12;;;;;;;42.45;18.33;;;10.40;99.90;;;;;;5003656;28;20399;-78
2023/11/14 04:47:39;;;;;;;44.88;18.25;;;10.40;99.90;;;;;;5026904;28;20041;-78
2023/11/14 04:50:07;;;;;;;27.88;16.48;;;10.40;99.90;;;;;;5026955;28;20055;-78
2023/11/14 04:52:38;;;;;;;28.13;16.50;;;10.40;99.90;;;;;;5021352;28;20075;-78
2023/11/14 04:55:05;;;;;;;36.40;16.88;;;10.40;99.90;;;;;;5025893;28;20037;-77
2023/11/14 04:57:31;;;;;;;34.65;19.50;;;10.40;99.90;;;;;;5003482;28;20060;-77
2023/11/14 04:59:59;;;;;;;37.38;17.88;;;10.40;99.90;;;;;;5023541;28;20122;-78
2023/11/14 05:02:27;;;;;;;34.67;18.25;;;10.50;99.90;;;;;;5011231;28;20094;-78
2023/11/14 05:04:54;;;;;;;38.35;19.10;;;10.40;99.90;;;;;;5028073;28;20070;-77
2023/11/14 05:07:21;;;;;;;45.20;19.40;;;10.40;99.90;;;;;;5021674;28;20053;-78
2023/11/14 05:09:48;;;;;;;30.73;17.50;;;10.40;99.90;;;;;;5024525;28;20040;-77
2023/11/14 05:12:15;;;;;;;36.47;18.52;;;10.50;99.90;;;;;;5026079;28;20103;-77
2023/11/14 05:14:44;;;;;;;25.40;17.05;;;10.50;99.90;;;;;;5006186;28;21160;-77
2023/11/14 05:17:10;;;;;;;36.90;20.20;;;10.50;99.90;;;;;;5023932;28;20121;-78
2023/11/14 05:19:39;;;;;;;43.60;18.95;;;10.50;99.90;;;;;;5011541;28;21602;-78
2023/11/14 05:22:06;;;;;;;36.00;18.17;;;10.60;99.90;;;;;;5029485;28;20045;-78
2023/11/14 05:24:33;;;;;;;39.20;18.95;;;10.60;99.90;;;;;;5022541;28;20046;-78
2023/11/14 05:27:00;;;;;;;26.75;19.25;;;10.50;99.90;;;;;;5031829;28;20103;-77
2023/11/14 05:29:26;;;;;;;45.83;20.13;;;10.60;99.90;;;;;;5007288;28;20052;-77
2023/11/14 05:31:53;;;;;;;32.38;19.38;;;10.60;99.90;;;;;;5027431;28;20044;-77
2023/11/14 05:34:20;;;;;;;41.00;19.73;;;10.60;99.90;;;;;;5023576;28;20029;-77
2023/11/14 05:36:47;;;;;;;31.58;19.85;;;10.60;99.90;;;;;;5015550;28;20041;-78
2023/11/14 05:39:14;;;;;;;34.22;19.10;;;10.60;99.90;;;;;;5026163;28;20037;-77
2023/11/14 05:41:42;;;;;;;36.60;19.98;;;10.60;99.90;;;;;;5023939;28;20041;-78
2023/11/14 05:44:09;;;;;;;24.23;17.50;;;10.60;99.90;;;;;;5021565;28;20042;-77
2023/11/14 05:46:35;;;;;;;32.78;18.15;;;10.70;99.90;;;;;;5026409;28;20645;-77
2023/11/14 05:49:02;;;;;;;31.92;19.27;;;10.60;99.90;;;;;;5030268;28;20541;-77
2023/11/14 05:51:30;;;;;;;35.00;19.27;;;10.60;99.90;;;;;;5020628;28;20048;-77
2023/11/14 05:53:57;;;;;;;33.47;18.77;;;10.60;99.90;;;;;;5025238;28;20080;-78
2023/11/14 05:56:23;;;;;;;33.17;18.50;;;10.60;99.90;;;;;;5025833;28;20088;-78
2023/11/14 05:58:52;;;;;;;32.38;18.50;;;10.60;99.90;;;;;;5023001;28;20063;-78
2023/11/14 06:01:19;;;;;;;34.15;18.15;;;10.60;99.90;;;;;;5029377;28;20541;-77
2023/11/14 06:03:47;;;;;;;32.00;18.60;;;10.60;99.90;;;;;;5024757;28;20086;-78
2023/11/14 06:06:14;;;;;;;34.80;19.27;;;10.60;99.90;;;;;;5017570;28;20061;-77
2023/11/14 06:08:41;;;;;;;31.25;20.00;;;10.60;99.90;;;;;;5012138;28;20099;-77
2023/11/14 06:11:09;;;;;;;29.08;18.70;;;10.60;99.90;;;;;;5033894;28;20045;-77
2023/11/14 06:13:39;;;;;;;24.88;19.10;;;10.60;99.90;;;;;;5012508;28;20060;-77
2023/11/14 06:16:07;;;;;;;27.60;18.10;;;10.70;99.90;;;;;;5033631;28;20055;-78
2023/11/14 06:18:34;;;;;;;24.60;18.52;;;10.70;99.90;;;;;;5035939;28;20047;-77
2023/11/14 06:21:01;;;;;;;22.52;18.50;;;10.60;99.90;;;;;;5039502;28;20045;-77
2023/11/14 06:23:28;;;;;;;26.10;19.35;;;10.60;99.90;;;;;;5035443;28;20118;-77
2023/11/14 06:25:56;;;;;;;23.83;18.17;;;10.70;99.90;;;;;;5030245;28;20063;-78
2023/11/14 06:28:23;;;;;;;29.55;18.45;;;10.60;99.90;;;;;;5037228;28;20049;-78
2023/11/14 06:30:50;;;;;;;35.13;18.95;;;10.60;99.90;;;;;;5028953;28;20459;-78
2023/11/14 06:33:17;;;;;;;38.22;18.77;;;10.70;99.90;;;;;;5026662;28;20069;-77
2023/11/14 06:35:47;;;;;;;32.95;19.02;;;10.60;99.90;;;;;;5026812;28;21582;-78
2023/11/14 06:38:14;;;;;;;30.30;17.45;;;10.70;99.90;;;;;;5018798;28;20037;-77
2023/11/14 06:40:41;;;;;;;30.20;17.75;;;10.60;99.90;;;;;;5032592;28;20052;-78
2023/11/14 06:43:08;;;;;;;35.13;17.98;;;10.70;99.90;;;;;;5052515;28;20068;-78
2023/11/14 06:45:36;;;;;;;32.67;19.63;;;10.60;99.90;;;;;;5004830;28;20080;-76
2023/11/14 06:48:03;;;;;;;28.13;18.92;;;10.60;99.90;;;;;;5029098;28;20479;-75
2023/11/14 06:50:30;;;;;;;58.65;19.83;;;10.60;99.90;;;;;;5028225;28;20083;-76
2023/11/14 06:53:10;;;;;;;36.03;18.45;;;10.60;99.90;;;;;;5030101;28;20041;-76
2023/11/14 06:55:38;;;;;;;34.38;18.38;;;10.60;99.90;;;;;;5042257;28;20061;-76
2023/11/14 06:58:05;;;;;;;38.58;18.92;;;10.60;99.90;;;;;;5026251;28;20056;-75
2023/11/14 07:00:32;;;;;;;46.28;19.38;;;10.60;99.90;;;;;;5030593;28;20040;-76
2023/11/14 07:02:58;;;;;;;28.00;17.98;;;10.60;99.90;;;;;;5015557;28;20041;-76
2023/11/14 07:05:25;;;;;;;30.55;17.27;;;10.60;99.90;;;;;;5027903;28;20061;-75
2023/11/14 07:07:54;;;;;;;37.55;16.95;;;10.60;99.90;;;;;;5031149;28;20072;-76
2023/11/14 07:10:21;;;;;;;26.90;17.27;;;10.60;99.90;;;;;;5029898;28;20141;-75
2023/11/14 07:12:48;;;;;;;35.67;18.98;;;10.60;99.90;;;;;;5028723;28;20064;-76
2023/11/14 07:15:17;;;;;;;34.80;18.63;;;10.60;99.90;;;;;;5023570;28;20044;-75
2023/11/14 07:17:46;;;;;;;30.40;17.65;;;10.60;99.90;;;;;;5028296;28;20044;-75
2023/11/14 07:20:13;;;;;;;44.95;18.70;;;10.60;99.90;;;;;;5029512;28;20049;-75
2023/11/14 07:22:40;;;;;;;32.58;17.88;;;10.60;99.90;;;;;;5028020;28;20053;-75
2023/11/14 07:25:11;;;;;;;37.92;18.95;;;10.60;99.90;;;;;;5026653;28;20051;-76
2023/11/14 07:27:41;;;;;;;38.70;19.13;;;10.70;99.90;;;;;;5025392;28;20045;-75
2023/11/14 07:30:09;;;;;;;26.77;17.95;;;10.60;99.90;;;;;;5021394;28;20107;-75
2023/11/14 07:32:36;;;;;;;33.35;18.15;;;10.60;99.90;;;;;;5024922;28;20872;-74
2023/11/14 07:35:03;;;;;;;36.35;19.25;;;10.70;99.90;;;;;;5012795;28;20052;-74
2023/11/14 07:37:30;;;;;;;44.08;20.73;;;10.70;99.90;;;;;;5026579;28;20052;-74
2023/11/14 07:39:57;;;;;;;28.30;18.08;;;10.70;99.90;;;;;;5026898;28;20124;-75
2023/11/14 07:42:24;;;;;;;35.67;19.55;;;10.70;99.90;;;;;;5026682;28;20037;-74
2023/11/14 07:44:51;;;;;;;34.97;19.77;;;10.70;99.90;;;;;;5007622;28;20041;-74
2023/11/14 07:47:18;;;;;;;28.73;18.48;;;10.80;99.90;;;;;;5025572;28;20099;-78
2023/11/14 07:49:47;;;;;;;37.50;21.08;;;10.80;99.90;;;;;;5024482;28;20808;-77
2023/11/14 07:52:14;;;;;;;32.63;20.77;;;10.70;99.90;;;;;;5026682;28;20042;-77
2023/11/14 07:54:41;;;;;;;37.42;20.85;;;10.70;99.90;;;;;;5024384;28;20045;-76
2023/11/14 07:57:08;;;;;;;62.67;21.55;;;10.70;99.90;;;;;;5022287;28;20034;-74
2023/11/14 07:59:35;;;;;;;36.38;20.35;;;10.60;99.90;;;;;;5005310;28;20128;-74
2023/11/14 08:02:01;;;;;;;36.15;20.27;;;10.50;99.90;;;;;;5029650;28;20095;-74
2023/11/14 08:04:29;;;;;;;36.17;17.85;;;10.60;99.90;;;;;;5024310;28;20059;-73
2023/11/14 08:06:56;;;;;;;42.70;19.38;;;10.60;99.90;;;;;;5022940;28;20041;-74
2023/11/14 08:09:24;;;;;;;34.83;19.48;;;10.60;99.90;;;;;;5017652;28;20206;-74
2023/11/14 08:11:50;;;;;;;41.88;19.98;;;10.70;99.90;;;;;;5028106;28;20041;-74
2023/11/14 08:14:17;;;;;;;39.33;19.55;;;10.70;99.90;;;;;;5026600;28;20057;-74
2023/11/14 08:16:44;;;;;;;39.90;20.02;;;10.70;99.90;;;;;;5025015;28;20055;-75
2023/11/14 08:19:11;;;;;;;39.40;20.35;;;10.80;99.90;;;;;;5029576;28;20044;-76
2023/11/14 08:21:37;;;;;;;29.00;20.40;;;10.80;99.90;;;;;;5026338;28;20103;-75
2023/11/14 08:24:04;;;;;;;40.20;20.35;;;10.80;99.90;;;;;;5027908;28;20665;-74
2023/11/14 08:26:31;;;;;;;32.65;19.30;;;10.80;99.90;;;;;;5028722;28;20534;-75
2023/11/14 08:28:58;;;;;;;54.67;22.17;;;10.80;99.90;;;;;;5025322;28;20110;-75
2023/11/14 08:31:24;;;;;;;37.90;19.42;;;10.70;99.90;;;;;;5011510;28;20730;-76
2023/11/14 08:33:52;;;;;;;32.90;19.55;;;10.60;99.90;;;;;;5024065;28;20056;-75
2023/11/14 08:36:19;;;;;;;41.85;19.90;;;10.60;99.90;;;;;;5022863;28;20045;-75
2023/11/14 08:38:46;;;;;;;38.33;20.63;;;10.60;99.90;;;;;;5012386;28;20046;-75
2023/11/14 08:41:13;;;;;;;33.85;20.98;;;10.70;99.90;;;;;;5029915;28;20041;-75
2023/11/14 08:43:41;;;;;;;36.55;22.40;;;10.80;99.90;;;;;;5024890;28;20678;-75
2023/11/14 08:46:08;;;;;;;43.80;22.52;;;10.80;99.90;;;;;;5012711;28;20049;-76
2023/11/14 08:48:34;;;;;;;44.40;22.33;;;10.80;99.90;;;;;;5028865;28;20679;-76
2023/11/14 08:51:02;;;;;;;34.58;21.85;;;10.80;99.90;;;;;;5027793;28;20049;-75
2023/11/14 08:53:30;;;;;;;35.92;21.45;;;10.70;99.90;;;;;;5010181;28;20056;-76
2023/11/14 08:55:57;;;;;;;40.38;20.95;;;10.70;99.90;;;;;;5019240;28;20094;-75
2023/11/14 08:58:24;;;;;;;37.80;19.80;;;10.70;99.90;;;;;;5025625;28;20132;-74
2023/11/14 09:00:53;;;;;;;38.33;20.60;;;10.60;99.90;;;;;;5021867;28;20117;-75
2023/11/14 09:03:19;;;;;;;32.13;19.10;;;10.60;99.90;;;;;;5028757;28;20044;-75
2023/11/14 09:05:46;;;;;;;33.72;18.73;;;10.50;99.90;;;;;;5023989;28;20068;-75
2023/11/14 09:08:13;;;;;;;44.55;20.65;;;10.50;99.90;;;;;;5010496;28;20049;-75
2023/11/14 09:10:43;;;;;;;34.20;20.13;;;10.60;99.90;;;;;;5026959;28;20056;-74
2023/11/14 09:13:13;;;;;;;36.30;20.73;;;10.60;99.90;;;;;;5024418;28;20278;-75
2023/11/14 09:15:40;;;;;;;37.20;21.30;;;10.70;99.90;;;;;;5037455;28;20060;-74
2023/11/14 09:18:08;;;;;;;34.78;21.20;;;10.70;99.90;;;;;;5027476;28;20174;-75
2023/11/14 09:20:36;;;;;;;35.80;22.00;;;10.80;99.90;;;;;;5025016;28;20063;-74
2023/11/14 09:23:04;;;;;;;40.38;22.88;;;10.80;99.90;;;;;;5028324;28;20095;-75
2023/11/14 09:25:31;;;;;;;37.90;22.10;;;10.80;99.90;;;;;;5025746;28;20045;-74
2023/11/14 09:27:59;;;;;;;38.85;21.77;;;10.90;99.90;;;;;;5026817;28;20704;-75
2023/11/14 09:30:28;;;;;;;47.05;23.00;;;10.90;99.90;;;;;;5030824;28;20119;-76
2023/11/14 09:32:54;;;;;;;31.45;21.10;;;10.90;99.90;;;;;;5010672;28;20083;-75
2023/11/14 09:35:22;;;;;;;28.45;21.38;;;11.00;99.90;;;;;;5024386;28;20250;-76
2023/11/14 09:37:50;;;;;;;36.35;22.58;;;11.00;99.90;;;;;;5028063;28;20051;-75
2023/11/14 09:40:20;;;;;;;38.10;23.60;;;11.00;99.90;;;;;;5029501;28;20515;-75
2023/11/14 09:42:51;;;;;;;40.08;22.63;;;11.10;99.90;;;;;;5032265;28;20041;-75
2023/11/14 09:45:20;;;;;;;39.83;23.40;;;11.10;99.90;;;;;;5029497;28;20049;-75
2023/11/14 09:47:49;;;;;;;35.38;22.42;;;11.10;99.90;;;;;;5026865;28;20041;-75
2023/11/14 09:50:17;;;;;;;44.38;23.20;;;11.10;99.90;;;;;;5026958;28;20797;-76
2023/11/14 09:52:45;;;;;;;33.45;22.17;;;11.10;99.90;;;;;;5029968;28;20118;-76
2023/11/14 09:55:14;;;;;;;36.53;21.30;;;11.00;99.90;;;;;;5029404;28;20656;-77
2023/11/14 09:57:46;;;;;;;32.67;19.55;;;10.80;99.90;;;;;;5027253;28;20053;-76
2023/11/14 10:00:16;;;;;;;42.73;20.30;;;10.70;99.90;;;;;;5033155;28;20049;-75
2023/11/14 10:02:43;;;;;;;35.85;21.20;;;10.70;99.90;;;;;;5014187;28;20083;-75
2023/11/14 10:05:10;;;;;;;43.67;22.83;;;10.70;99.90;;;;;;5018664;28;20511;-76
2023/11/14 10:07:43;;;;;;;34.15;20.42;;;10.70;99.90;;;;;;5029195;28;20079;-76
2023/11/14 10:10:14;;;;;;;42.28;21.40;;;10.80;99.90;;;;;;5030670;28;20649;-79
2023/11/14 10:12:41;;;;;;;27.35;21.80;;;10.90;99.90;;;;;;5035411;28;20041;-76
2023/11/14 10:15:08;;;;;;;26.95;21.50;;;11.00;99.90;;;;;;5030749;28;20046;-76
2023/11/14 10:17:47;;;;;;;34.03;22.15;;;11.10;99.90;;;;;;5018011;28;20064;-75
2023/11/14 10:20:17;;;;;;;35.08;22.02;;;11.20;99.90;;;;;;5017944;28;20049;-75
2023/11/14 10:22:54;;;;;;;33.28;22.73;;;11.30;99.90;;;;;;5029486;28;20140;-75
2023/11/14 10:25:32;;;;;;;33.13;23.10;;;11.30;99.90;;;;;;5031591;28;20083;-76
2023/11/14 10:28:04;;;;;;;32.40;23.17;;;11.60;99.90;;;;;;5029910;28;20049;-76
2023/11/14 10:30:49;;;;;;;33.85;24.67;;;11.80;99.90;;;;;;5031452;28;20053;-75
2023/11/14 10:33:16;;;;;;;32.95;22.98;;;11.80;99.90;;;;;;5013515;28;20045;-76
2023/11/14 10:36:08;;;;;;;41.00;23.80;;;11.70;99.90;;;;;;5029138;28;20044;-76
2023/11/14 10:38:35;;;;;;;30.10;22.67;;;11.70;99.90;;;;;;5035152;28;20147;-75
2023/11/14 10:41:02;;;;;;;35.00;22.58;;;11.70;99.90;;;;;;5033420;28;20049;-76
2023/11/14 10:43:31;;;;;;;33.22;23.23;;;11.70;99.90;;;;;;5034033;28;20658;-75
2023/11/14 10:46:11;;;;;;;38.67;23.38;;;11.70;99.90;;;;;;5014760;28;20132;-76
2023/11/14 10:48:38;;;;;;;31.00;23.73;;;11.70;99.90;;;;;;5036102;28;20590;-76
2023/11/14 10:51:11;;;;;;;27.58;21.80;;;11.70;99.90;;;;;;5031743;28;20090;-75
2023/11/14 10:53:39;;;;;;;33.30;22.52;;;11.70;99.90;;;;;;5029826;28;20045;-74
2023/11/14 10:56:07;;;;;;;33.78;23.45;;;11.70;99.90;;;;;;5032245;28;20041;-75
2023/11/14 10:58:35;;;;;;;25.25;21.63;;;11.60;99.90;;;;;;5036166;28;20049;-75
2023/11/14 11:01:06;;;;;;;30.85;22.75;;;11.60;99.90;;;;;;5028862;28;20139;-74
2023/11/14 11:03:34;;;;;;;26.42;22.02;;;11.60;99.90;;;;;;5033989;28;20115;-75
2023/11/14 11:06:03;;;;;;;29.60;23.02;;;11.60;99.90;;;;;;5030554;28;20376;-75
2023/11/14 11:16:54;;;;;;;31.90;21.52;;;12.00;99.90;;;;;;5032253;28;20056;-75
2023/11/14 11:19:21;;;;;;;32.08;23.60;;;12.00;99.90;;;;;;5032210;28;20164;-74
2023/11/14 11:22:03;;;;;;;31.77;23.83;;;11.90;99.90;;;;;;5032015;28;20130;-76
2023/11/14 11:24:30;;;;;;;24.85;22.15;;;11.90;99.90;;;;;;5034658;28;20045;-76
2023/11/14 11:27:20;;;;;;;27.45;22.42;;;11.90;99.90;;;;;;5011145;28;20037;-77
2023/11/14 11:29:50;;;;;;;36.17;23.00;;;11.90;99.90;;;;;;5045749;28;20056;-76
2023/11/14 11:32:26;;;;;;;27.75;23.08;;;12.10;99.90;;;;;;5029546;28;20033;-76
2023/11/14 11:35:21;;;;;;;28.52;22.77;;;12.10;99.90;;;;;;5031601;28;20044;-76
2023/11/14 11:37:51;;;;;;;24.60;22.17;;;12.10;99.90;;;;;;5029002;28;20046;-76
2023/11/14 11:40:25;;;;;;;27.13;23.42;;;12.10;99.90;;;;;;5030602;28;20037;-76
2023/11/14 11:42:57;;;;;;;26.98;22.60;;;12.10;99.90;;;;;;5030336;28;20690;-74
2023/11/14 11:45:41;;;;;;;30.23;23.48;;;12.00;99.90;;;;;;5034300;28;20041;-74
2023/11/14 11:48:30;;;;;;;27.50;22.88;;;12.00;99.90;;;;;;5032411;28;20056;-74
2023/11/14 11:51:20;;;;;;;34.42;23.10;;;12.00;99.90;;;;;;5031972;28;20144;-75
2023/11/14 11:53:49;;;;;;;34.15;23.42;;;12.00;99.90;;;;;;5031140;28;20129;-75
2023/11/14 11:56:35;;;;;;;34.17;23.30;;;12.00;99.90;;;;;;5028705;28;20113;-73
2023/11/14 11:59:08;;;;;;;24.65;22.35;;;12.10;99.90;;;;;;5028172;28;20045;-73
2023/11/14 12:01:53;;;;;;;27.63;23.27;;;12.20;99.90;;;;;;5021424;28;20431;-72
2023/11/14 12:04:25;;;;;;;35.25;22.48;;;12.20;99.90;;;;;;5047471;28;20041;-71
2023/11/14 12:06:55;;;;;;;36.67;24.23;;;12.20;99.90;;;;;;5025459;28;20073;-71
2023/11/14 12:09:22;;;;;;;41.40;27.52;;;12.10;99.90;;;;;;5031081;28;20694;-74
2023/11/14 12:11:52;;;;;;;31.98;23.95;;;12.00;99.90;;;;;;5006733;28;20148;-73
2023/11/14 12:14:22;;;;;;;26.50;23.90;;;12.00;99.90;;;;;;5013223;28;20045;-74
2023/11/14 12:20:50;;;;;;;26.10;23.52;;;12.00;99.90;;;;;;5028221;28;20098;-74
2023/11/14 12:23:17;;;;;;;27.98;23.15;;;12.00;99.90;;;;;;5029586;28;20053;-73
2023/11/14 12:25:47;;;;;;;31.30;22.90;;;12.00;99.90;;;;;;5010022;28;20067;-73
2023/11/14 12:28:15;;;;;;;29.20;23.55;;;12.00;99.90;;;;;;5027224;28;20079;-74
2023/11/14 12:30:59;;;;;;;29.13;23.40;;;12.00;99.90;;;;;;5027267;28;20768;-73
2023/11/14 12:33:26;;;;;;;31.33;24.33;;;11.90;99.90;;;;;;5027890;28;20037;-74
2023/11/14 12:35:58;;;;;;;26.65;23.95;;;11.90;99.90;;;;;;5028476;28;20624;-74
2023/11/14 12:38:36;;;;;;;32.25;23.80;;;11.90;99.90;;;;;;5013303;28;20052;-72
2023/11/14 12:41:15;;;;;;;30.83;24.75;;;11.90;99.90;;;;;;5025065;28;20051;-71
2023/11/14 12:43:46;;;;;;;39.78;24.77;;;11.90;99.90;;;;;;5028979;28;20055;-73
2023/11/14 12:46:32;;;;;;;36.80;26.45;;;12.10;99.90;;;;;;5025458;28;20605;-72
2023/11/14 12:49:17;;;;;;;26.67;23.52;;;12.20;99.90;;;;;;5027345;28;20044;-72